Terminal Aerodrome Forecast
Issued by NWS

Current Version | Previous Version | Text Only | Print | Product List | Glossary On
Versions: 1 2 3 4 5 6 7 8 9 10 11 12 13 14
088
FTUS43 KDVN 271720
TAFCID
TAF
KCID 271720Z 2718/2818 17008KT P6SM SKC
     FM280700 16012KT P6SM BKN250 WS020/19040KT
     FM281200 17012G24KT P6SM BKN050 PROB30 2814/2818 3SM TSRA
      BKN035CB=

USA.gov is the U.S. government's official web portal to all federal, state and local government web resources and services.